Time;durP1;ratioP1;P1;durP2;ratioP2;P2;SDS_P1;SDS_P2;PMS_P1;PMS_P2;Temp;Humidity;BMP_temperature;BMP_pressure;BME280_temperature;BME280_humidity;BME280_pressure;Samples;Min_cycle;Max_cycle;Signal;HPM_P1;HPM_P2
2022/12/27 00:01:49;;;;;;;16.13;2.42;;;3.10;99.90;;;;;;4990330;28;20096;-78
2022/12/27 00:04:15;;;;;;;13.02;1.80;;;3.20;99.90;;;;;;4994553;28;20334;-79
2022/12/27 00:06:41;;;;;;;15.57;2.88;;;3.30;99.90;;;;;;4979279;28;20054;-79
2022/12/27 00:09:07;;;;;;;13.32;2.20;;;3.30;99.90;;;;;;4976387;28;20042;-78
2022/12/27 00:11:33;;;;;;;9.38;2.10;;;3.30;99.90;;;;;;4995306;28;20398;-77
2022/12/27 00:14:00;;;;;;;14.02;1.80;;;3.40;99.90;;;;;;4976876;28;22541;-79
2022/12/27 00:16:28;;;;;;;11.85;2.03;;;3.40;99.90;;;;;;4971233;28;20096;-80
2022/12/27 00:18:53;;;;;;;19.38;1.92;;;3.40;99.90;;;;;;4990903;28;20048;-81
2022/12/27 00:21:20;;;;;;;11.52;2.00;;;3.30;99.90;;;;;;4971772;28;20034;-78
2022/12/27 00:23:51;;;;;;;10.68;2.05;;;3.40;99.90;;;;;;4999175;28;20053;-80
2022/12/27 00:26:22;;;;;;;13.73;2.20;;;3.40;99.90;;;;;;4977786;28;20046;-80
2022/12/27 00:28:48;;;;;;;11.98;1.92;;;3.30;99.90;;;;;;4974536;28;20046;-80
2022/12/27 00:31:15;;;;;;;13.18;2.17;;;3.20;99.90;;;;;;4980110;28;20034;-80
2022/12/27 00:33:42;;;;;;;16.25;1.98;;;3.30;99.90;;;;;;5019296;28;20082;-80
2022/12/27 00:36:11;;;;;;;13.75;2.17;;;3.40;99.90;;;;;;4995472;28;20097;-80
2022/12/27 00:38:36;;;;;;;17.27;2.17;;;3.40;99.90;;;;;;4972952;28;20065;-79
2022/12/27 00:41:03;;;;;;;13.20;1.90;;;3.30;99.90;;;;;;4976379;28;20480;-80
2022/12/27 00:43:28;;;;;;;10.70;2.10;;;3.30;99.90;;;;;;4987548;28;20065;-80
2022/12/27 00:45:54;;;;;;;20.45;2.15;;;3.40;99.90;;;;;;4977621;28;20438;-80
2022/12/27 00:48:20;;;;;;;19.83;3.08;;;3.40;99.90;;;;;;4983832;28;20085;-79
2022/12/27 00:50:46;;;;;;;16.98;2.67;;;3.40;99.90;;;;;;4972362;28;20050;-80
2022/12/27 00:53:12;;;;;;;19.98;2.45;;;3.50;99.90;;;;;;4989137;28;20039;-80
2022/12/27 00:55:42;;;;;;;13.93;2.20;;;3.50;99.90;;;;;;4989858;28;20405;-79
2022/12/27 00:58:15;;;;;;;12.68;2.17;;;3.50;99.90;;;;;;4987812;28;20485;-78
2022/12/27 01:00:41;;;;;;;14.43;2.33;;;3.50;99.90;;;;;;4988566;28;20049;-80
2022/12/27 01:03:07;;;;;;;14.52;2.35;;;3.60;99.90;;;;;;4994065;28;20038;-81
2022/12/27 01:05:36;;;;;;;21.55;2.28;;;3.60;99.90;;;;;;4992367;28;20044;-79
2022/12/27 01:08:03;;;;;;;15.45;1.95;;;3.60;99.90;;;;;;4993769;28;20042;-79
2022/12/27 01:10:29;;;;;;;15.20;2.33;;;3.60;99.90;;;;;;4974574;28;20042;-79
2022/12/27 01:12:55;;;;;;;14.30;2.35;;;3.70;99.90;;;;;;4994030;28;20042;-79
2022/12/27 01:15:20;;;;;;;12.85;2.08;;;3.70;99.90;;;;;;4992028;28;20042;-79
2022/12/27 01:17:46;;;;;;;14.88;2.15;;;3.80;99.90;;;;;;4994135;28;20137;-79
2022/12/27 01:20:12;;;;;;;14.43;2.53;;;3.70;99.90;;;;;;4977750;28;20050;-80
2022/12/27 01:22:37;;;;;;;16.58;2.40;;;3.70;99.90;;;;;;4996029;28;20111;-79
2022/12/27 01:25:04;;;;;;;14.73;2.10;;;3.80;99.90;;;;;;4993813;28;20115;-79
2022/12/27 01:27:29;;;;;;;21.92;2.47;;;3.70;99.90;;;;;;4984244;28;20453;-79
2022/12/27 01:29:55;;;;;;;14.57;2.50;;;3.70;99.90;;;;;;4961177;28;20042;-79
2022/12/27 01:32:21;;;;;;;21.48;2.35;;;3.80;99.90;;;;;;4994174;28;20080;-78
2022/12/27 01:34:46;;;;;;;16.38;2.38;;;3.90;99.90;;;;;;4997422;28;20038;-79
2022/12/27 01:37:12;;;;;;;10.43;1.73;;;4.00;99.90;;;;;;4976890;28;20038;-80
2022/12/27 01:39:37;;;;;;;21.52;2.17;;;4.10;99.90;;;;;;4976256;28;20142;-78
2022/12/27 01:44:57;;;;;;;15.07;1.88;;;4.30;99.90;;;;;;4992397;28;20466;-81
2022/12/27 01:47:44;;;;;;;12.05;2.20;;;4.30;99.90;;;;;;4976490;28;20149;-80
2022/12/27 01:50:16;;;;;;;17.10;2.22;;;4.40;99.90;;;;;;4997664;28;20125;-78
2022/12/27 01:52:47;;;;;;;11.88;1.98;;;4.40;99.90;;;;;;4976464;28;20100;-80
2022/12/27 01:55:30;;;;;;;14.38;2.03;;;4.30;99.90;;;;;;4976906;28;20042;-79
2022/12/27 01:58:02;;;;;;;17.38;2.03;;;4.50;99.90;;;;;;4992585;28;20050;-79
2022/12/27 02:00:28;;;;;;;8.05;1.60;;;4.50;99.90;;;;;;4992839;28;20081;-78
2022/12/27 02:02:54;;;;;;;9.10;1.75;;;4.50;99.90;;;;;;4992748;28;20073;-79
2022/12/27 02:05:23;;;;;;;10.57;1.60;;;4.40;99.90;;;;;;4992300;28;20577;-79
2022/12/27 02:08:09;;;;;;;14.60;1.92;;;4.40;99.90;;;;;;4992603;28;20045;-79
2022/12/27 02:10:35;;;;;;;12.50;1.95;;;4.30;99.90;;;;;;4990070;28;20053;-80
2022/12/27 02:13:04;;;;;;;10.82;2.40;;;4.40;99.90;;;;;;4974767;28;20061;-79
2022/12/27 02:15:30;;;;;;;7.57;2.00;;;4.40;99.90;;;;;;4972088;28;20544;-78
2022/12/27 02:17:55;;;;;;;11.45;1.85;;;4.50;99.90;;;;;;4984057;28;20121;-82
2022/12/27 02:20:22;;;;;;;13.95;1.95;;;4.50;99.90;;;;;;4959331;28;20647;-80
2022/12/27 02:26:31;;;;;;;13.43;2.30;;;4.40;99.90;;;;;;4993595;28;20432;-81
2022/12/27 02:29:13;;;;;;;15.35;1.95;;;4.30;99.90;;;;;;4993194;28;20144;-80
2022/12/27 02:32:12;;;;;;;11.95;1.75;;;4.40;99.90;;;;;;4992879;28;20049;-79
2022/12/27 02:34:40;;;;;;;11.73;2.15;;;4.20;99.90;;;;;;4931412;29;20054;-78
2022/12/27 02:37:13;;;;;;;13.77;1.90;;;4.30;99.90;;;;;;4914705;29;20039;-79
2022/12/27 02:39:44;;;;;;;14.82;1.95;;;4.30;99.90;;;;;;4916435;29;20499;-79
2022/12/27 02:54:08;;;;;;;10.43;2.40;;;4.50;99.90;;;;;;4917050;29;19923;-78
2022/12/27 02:57:07;;;;;;;12.52;2.05;;;4.50;99.90;;;;;;4898037;29;20043;-79
2022/12/27 03:03:20;;;;;;;21.60;2.55;;;4.40;99.90;;;;;;4897288;29;20048;-79
2022/12/27 03:06:38;;;;;;;15.00;2.30;;;4.10;99.90;;;;;;4897547;29;20066;-79
2022/12/27 03:08:50;;;;;;;15.15;2.05;;;4.20;99.90;;;;;;4893752;29;20071;-79
2022/12/27 03:17:18;;;;;;;13.98;2.35;;;4.20;99.90;;;;;;4931507;29;20545;-79
2022/12/27 03:25:29;;;;;;;15.30;2.00;;;4.20;99.90;;;;;;4921971;29;20070;-81
2022/12/27 03:40:00;;;;;;;10.60;1.90;;;4.50;99.90;;;;;;5000350;28;20052;-80
2022/12/27 03:45:19;;;;;;;20.20;2.80;;;4.40;99.90;;;;;;4983922;28;20327;-78
2022/12/27 03:47:58;;;;;;;12.65;2.20;;;4.50;99.90;;;;;;4984612;28;20057;-78
2022/12/27 03:50:45;;;;;;;10.88;1.88;;;4.40;99.90;;;;;;4984439;28;20405;-79
2022/12/27 03:53:31;;;;;;;18.10;2.28;;;4.40;99.90;;;;;;4985906;28;20486;-79
2022/12/27 03:55:57;;;;;;;14.52;1.80;;;4.50;99.90;;;;;;4982523;28;20054;-79
2022/12/27 03:58:23;;;;;;;10.82;2.53;;;4.20;99.90;;;;;;4968868;28;20448;-78
2022/12/27 04:00:49;;;;;;;11.27;2.13;;;4.30;99.90;;;;;;4969847;28;20077;-80
2022/12/27 04:03:14;;;;;;;13.25;2.33;;;4.20;99.90;;;;;;4985636;28;20057;-79
2022/12/27 04:05:40;;;;;;;15.32;2.53;;;4.20;99.90;;;;;;4982665;28;20073;-79
2022/12/27 04:35:47;;;;;;;13.00;2.03;;;4.00;99.90;;;;;;4990995;28;20467;-80
2022/12/27 04:38:12;;;;;;;16.27;2.40;;;3.90;99.90;;;;;;4989687;28;20042;-79
2022/12/27 04:54:57;;;;;;;12.13;1.98;;;4.40;99.90;;;;;;4994047;28;20049;-79
2022/12/27 04:57:25;;;;;;;13.80;1.95;;;4.30;99.90;;;;;;4977448;28;20126;-79
2022/12/27 05:02:35;;;;;;;18.77;2.60;;;4.20;99.90;;;;;;4983375;28;20038;-80
2022/12/27 05:05:01;;;;;;;13.63;2.50;;;4.00;99.90;;;;;;4994105;28;20042;-79
2022/12/27 05:15:39;;;;;;;14.00;2.35;;;3.60;99.90;;;;;;5012161;28;20050;-80
2022/12/27 05:18:05;;;;;;;13.45;2.47;;;3.60;99.90;;;;;;4980271;28;20061;-78
2022/12/27 05:20:33;;;;;;;22.05;2.60;;;3.70;99.90;;;;;;4976965;28;20034;-79
2022/12/27 05:25:45;;;;;;;16.55;2.15;;;3.50;99.90;;;;;;4989465;28;20047;-81
2022/12/27 05:28:12;;;;;;;17.15;2.63;;;3.50;99.90;;;;;;4975843;28;20054;-79
2022/12/27 05:30:40;;;;;;;17.70;2.70;;;3.70;99.90;;;;;;4977736;28;20129;-79
2022/12/27 05:33:06;;;;;;;14.25;2.22;;;3.50;99.90;;;;;;4991171;28;21702;-78
2022/12/27 05:35:34;;;;;;;18.58;2.60;;;3.60;99.90;;;;;;4977197;28;20147;-80
2022/12/27 05:38:00;;;;;;;20.10;2.78;;;3.50;99.90;;;;;;4993904;28;20378;-77
2022/12/27 05:40:26;;;;;;;12.98;3.22;;;3.60;99.90;;;;;;4975459;28;20035;-78
2022/12/27 05:42:52;;;;;;;16.83;2.45;;;3.50;99.90;;;;;;4976399;28;20539;-78
2022/12/27 05:45:19;;;;;;;15.45;2.45;;;3.60;99.90;;;;;;4977261;28;20397;-78
2022/12/27 05:47:45;;;;;;;12.73;2.30;;;3.70;99.90;;;;;;4978997;28;20049;-80
2022/12/27 05:50:11;;;;;;;15.27;2.75;;;3.70;99.90;;;;;;4989231;28;20062;-79
2022/12/27 05:52:37;;;;;;;22.08;2.97;;;3.70;99.90;;;;;;4979608;28;20042;-80
2022/12/27 05:55:03;;;;;;;18.55;2.60;;;3.50;99.90;;;;;;4993658;28;20046;-79
2022/12/27 05:57:29;;;;;;;16.63;2.47;;;3.40;99.90;;;;;;4992932;28;20084;-78
2022/12/27 05:59:54;;;;;;;14.93;2.47;;;3.30;99.90;;;;;;4975690;28;20459;-79
2022/12/27 06:02:20;;;;;;;20.45;2.75;;;3.30;99.90;;;;;;5008831;28;20164;-79
2022/12/27 06:04:46;;;;;;;20.25;2.67;;;3.40;99.90;;;;;;4975678;28;20065;-80
2022/12/27 06:07:12;;;;;;;20.27;2.75;;;3.20;99.90;;;;;;4975616;28;20100;-79
2022/12/27 06:09:39;;;;;;;13.35;2.38;;;3.20;99.90;;;;;;4975950;28;20758;-79
2022/12/27 06:12:05;;;;;;;16.02;2.42;;;3.20;99.90;;;;;;4983114;28;20030;-78
2022/12/27 06:14:30;;;;;;;13.32;2.40;;;3.10;99.90;;;;;;4973718;28;20453;-79
2022/12/27 06:16:56;;;;;;;10.57;2.42;;;2.90;99.90;;;;;;4961569;28;20406;-80
2022/12/27 06:19:22;;;;;;;17.63;2.55;;;3.00;99.90;;;;;;4974602;28;20122;-79
2022/12/27 06:21:48;;;;;;;21.42;2.70;;;3.20;99.90;;;;;;4976615;28;20114;-78
2022/12/27 06:24:14;;;;;;;14.43;2.40;;;2.90;99.90;;;;;;4990729;28;20039;-79
2022/12/27 06:26:41;;;;;;;19.73;2.45;;;3.00;99.90;;;;;;4974068;28;20042;-78
2022/12/27 06:29:10;;;;;;;14.95;2.80;;;3.20;99.90;;;;;;4973570;28;20125;-78
2022/12/27 06:31:36;;;;;;;24.45;3.38;;;2.90;99.90;;;;;;4975916;28;20096;-80
2022/12/27 06:34:02;;;;;;;18.08;2.50;;;2.90;99.90;;;;;;4991007;28;20092;-78
2022/12/27 06:36:29;;;;;;;15.73;2.75;;;2.90;99.90;;;;;;4989777;28;20042;-78
2022/12/27 06:38:56;;;;;;;22.92;2.67;;;3.00;99.90;;;;;;4984877;28;20045;-81
2022/12/27 06:41:23;;;;;;;17.42;2.45;;;3.10;99.90;;;;;;4990788;28;20042;-82
2022/12/27 06:43:54;;;;;;;18.38;2.85;;;3.00;99.90;;;;;;4987944;28;20061;-78
2022/12/27 06:46:20;;;;;;;22.05;2.40;;;3.00;99.90;;;;;;4986220;28;20053;-78
2022/12/27 06:48:46;;;;;;;20.83;2.53;;;2.90;99.90;;;;;;4987350;28;20046;-78
2022/12/27 06:51:13;;;;;;;19.40;2.95;;;3.00;99.90;;;;;;4991004;28;20336;-79
2022/12/27 06:53:39;;;;;;;14.75;2.42;;;3.20;99.90;;;;;;4969089;28;20120;-79
2022/12/27 06:56:08;;;;;;;27.27;3.10;;;3.00;99.90;;;;;;4963174;28;20050;-78
2022/12/27 06:58:34;;;;;;;15.15;2.88;;;2.80;99.90;;;;;;4984967;28;20050;-79
2022/12/27 07:01:11;;;;;;;22.48;2.50;;;2.80;99.90;;;;;;4984843;28;20049;-78
2022/12/27 07:03:37;;;;;;;17.13;2.60;;;3.00;99.90;;;;;;4988239;28;20046;-78
2022/12/27 07:06:04;;;;;;;20.98;3.05;;;2.90;99.90;;;;;;4986157;28;20050;-79
2022/12/27 07:08:30;;;;;;;18.67;2.90;;;2.60;99.90;;;;;;4967312;28;20061;-78
2022/12/27 07:11:03;;;;;;;20.27;2.70;;;2.70;99.90;;;;;;4970564;28;20030;-78
2022/12/27 07:13:33;;;;;;;17.60;3.08;;;2.60;99.90;;;;;;4955487;28;20070;-81
2022/12/27 07:15:58;;;;;;;16.52;2.75;;;2.60;99.90;;;;;;4985496;28;20040;-79
2022/12/27 07:18:24;;;;;;;23.20;3.03;;;2.70;99.90;;;;;;4969149;28;20488;-78
2022/12/27 07:20:51;;;;;;;12.95;2.42;;;2.60;99.90;;;;;;4970108;28;20065;-78
2022/12/27 07:23:16;;;;;;;23.40;3.15;;;2.50;99.90;;;;;;4970528;28;21538;-78
2022/12/27 07:25:42;;;;;;;21.50;2.60;;;2.50;99.90;;;;;;4984112;28;20050;-79
2022/12/27 07:28:08;;;;;;;20.75;2.80;;;2.50;99.90;;;;;;4968052;28;20034;-78
2022/12/27 07:30:33;;;;;;;16.48;2.35;;;2.50;99.90;;;;;;4984613;28;20139;-77
2022/12/27 07:32:59;;;;;;;19.23;2.13;;;2.80;99.90;;;;;;4967536;28;20077;-79
2022/12/27 07:35:25;;;;;;;14.63;2.03;;;2.70;99.90;;;;;;4982356;28;20058;-78
2022/12/27 07:37:50;;;;;;;21.20;2.70;;;2.60;99.90;;;;;;4964704;28;20050;-78
2022/12/27 07:40:17;;;;;;;13.88;2.65;;;2.80;99.90;;;;;;4982169;28;20050;-80
2022/12/27 07:42:43;;;;;;;12.13;2.33;;;2.70;99.90;;;;;;4965570;28;20137;-78
2022/12/27 07:45:09;;;;;;;17.65;2.35;;;2.70;99.90;;;;;;4966458;28;20089;-77
2022/12/27 07:47:34;;;;;;;11.73;2.20;;;2.70;99.90;;;;;;4985926;28;20125;-77
2022/12/27 07:50:00;;;;;;;19.77;2.92;;;3.00;99.90;;;;;;4983527;28;20054;-80
2022/12/27 07:52:27;;;;;;;19.40;2.40;;;2.90;99.90;;;;;;4964745;28;20116;-79
2022/12/27 07:54:53;;;;;;;15.00;2.28;;;2.90;99.90;;;;;;5017870;28;20113;-80
2022/12/27 07:57:18;;;;;;;16.85;2.35;;;3.00;99.90;;;;;;4981859;28;20061;-80
2022/12/27 07:59:44;;;;;;;19.10;2.40;;;2.90;99.90;;;;;;4986280;28;20039;-80
2022/12/27 08:02:09;;;;;;;19.80;2.30;;;2.80;99.90;;;;;;4990654;28;20057;-78
2022/12/27 08:04:37;;;;;;;17.98;2.45;;;3.00;99.90;;;;;;4989273;28;20148;-79
2022/12/27 08:07:12;;;;;;;16.75;2.40;;;3.00;99.90;;;;;;4989784;28;20047;-77
2022/12/27 08:09:40;;;;;;;19.98;2.50;;;3.00;99.90;;;;;;4979471;28;20133;-77
2022/12/27 08:12:07;;;;;;;16.33;2.30;;;2.60;99.90;;;;;;4973225;28;20752;-79
2022/12/27 08:14:32;;;;;;;15.80;2.70;;;2.80;99.90;;;;;;4982749;28;20034;-79
2022/12/27 08:17:25;;;;;;;17.17;2.35;;;2.80;99.90;;;;;;4975726;28;20113;-79
2022/12/27 08:19:52;;;;;;;20.50;2.85;;;2.60;99.90;;;;;;5006201;28;20042;-79
2022/12/27 08:22:18;;;;;;;19.80;2.65;;;2.60;99.90;;;;;;4989967;28;20116;-79
2022/12/27 08:24:44;;;;;;;22.98;2.70;;;2.70;99.90;;;;;;4992663;28;20089;-81
2022/12/27 08:27:10;;;;;;;20.35;3.10;;;2.90;99.90;;;;;;4973187;28;20046;-78
2022/12/27 08:29:36;;;;;;;23.10;3.50;;;3.00;99.90;;;;;;4968293;28;20053;-78
2022/12/27 08:32:04;;;;;;;19.88;2.53;;;2.70;99.90;;;;;;4984986;28;20077;-78
2022/12/27 08:34:31;;;;;;;22.52;2.92;;;2.70;99.90;;;;;;4976774;28;20051;-80
2022/12/27 08:36:57;;;;;;;20.13;2.90;;;3.00;99.90;;;;;;4993736;28;20093;-78
2022/12/27 08:39:23;;;;;;;27.63;2.97;;;3.00;99.90;;;;;;4974149;28;20082;-78
2022/12/27 08:41:50;;;;;;;15.57;2.47;;;2.70;99.90;;;;;;4978189;28;20050;-79
2022/12/27 08:44:16;;;;;;;17.42;3.53;;;3.10;99.90;;;;;;4967541;28;20050;-78
2022/12/27 08:46:42;;;;;;;30.90;4.18;;;2.80;99.90;;;;;;4982565;28;20058;-80
2022/12/27 08:49:14;;;;;;;13.55;2.53;;;3.00;99.90;;;;;;4985633;28;20053;-83
2022/12/27 08:51:39;;;;;;;20.58;3.53;;;3.00;99.90;;;;;;4972148;28;20058;-78
2022/12/27 08:54:11;;;;;;;24.02;3.10;;;3.20;99.90;;;;;;4988948;28;20045;-79
2022/12/27 08:56:37;;;;;;;23.95;3.45;;;3.20;99.90;;;;;;4988938;28;20478;-79
2022/12/27 08:59:03;;;;;;;16.20;2.85;;;3.20;99.90;;;;;;4988964;28;20030;-81
2022/12/27 09:01:28;;;;;;;18.65;3.40;;;3.00;99.90;;;;;;4973774;28;20069;-79
2022/12/27 09:03:54;;;;;;;17.05;3.13;;;3.30;99.90;;;;;;4972244;28;20058;-79
2022/12/27 09:06:22;;;;;;;12.70;2.80;;;3.30;99.90;;;;;;4987234;28;20053;-78
2022/12/27 09:08:49;;;;;;;21.88;3.20;;;3.40;99.90;;;;;;4972561;28;20215;-80
2022/12/27 09:11:22;;;;;;;20.05;3.20;;;3.40;99.90;;;;;;4987205;28;20148;-79
2022/12/27 09:13:48;;;;;;;23.02;3.17;;;3.40;99.90;;;;;;4986676;28;20038;-79
2022/12/27 09:16:17;;;;;;;21.98;2.95;;;3.40;99.90;;;;;;4990291;28;20053;-79
2022/12/27 09:18:48;;;;;;;23.30;3.80;;;3.60;99.90;;;;;;4988578;28;20093;-78
2022/12/27 09:21:18;;;;;;;21.10;2.95;;;3.60;99.90;;;;;;4970254;28;20049;-80
2022/12/27 09:23:45;;;;;;;21.30;3.10;;;3.50;99.90;;;;;;4990809;28;20046;-76
2022/12/27 09:26:17;;;;;;;14.88;3.10;;;3.60;99.90;;;;;;4988734;28;20038;-80
2022/12/27 09:28:43;;;;;;;15.85;3.05;;;3.50;99.90;;;;;;4987416;28;20397;-76
2022/12/27 09:31:10;;;;;;;24.70;3.05;;;3.60;99.90;;;;;;4990681;28;20129;-77
2022/12/27 09:33:36;;;;;;;18.10;3.25;;;3.80;99.90;;;;;;4970912;28;20045;-78
2022/12/27 09:36:05;;;;;;;21.92;3.40;;;3.80;99.90;;;;;;4988123;28;20165;-79
2022/12/27 09:38:31;;;;;;;23.77;3.55;;;3.60;99.90;;;;;;4975085;28;20126;-78
2022/12/27 09:41:03;;;;;;;20.70;3.85;;;3.90;99.90;;;;;;4985623;28;20038;-76
2022/12/27 09:43:45;;;;;;;10.35;2.55;;;3.70;99.90;;;;;;4988023;28;20058;-79
2022/12/27 09:46:21;;;;;;;27.35;3.40;;;3.80;99.90;;;;;;4989952;28;20118;-79
2022/12/27 09:48:48;;;;;;;17.45;3.33;;;3.90;99.90;;;;;;4989905;28;20125;-77
2022/12/27 09:51:31;;;;;;;17.58;3.25;;;3.80;99.90;;;;;;4972897;28;20043;-80
2022/12/27 09:54:08;;;;;;;17.02;3.20;;;3.80;99.90;;;;;;4974888;28;20066;-76
2022/12/27 09:56:35;;;;;;;20.83;3.15;;;4.10;99.90;;;;;;4977282;28;20062;-78
2022/12/27 09:59:38;;;;;;;18.70;3.30;;;4.00;99.90;;;;;;5001539;28;20046;-78
2022/12/27 10:02:25;;;;;;;17.33;3.42;;;4.20;99.90;;;;;;4997867;28;20505;-80
2022/12/27 10:04:55;;;;;;;21.67;3.03;;;4.20;99.90;;;;;;5011956;28;20085;-79
2022/12/27 10:07:24;;;;;;;16.65;2.80;;;4.20;99.90;;;;;;4995327;28;20091;-80
2022/12/27 10:10:02;;;;;;;14.80;2.75;;;4.20;99.90;;;;;;5012102;28;20049;-79
2022/12/27 10:12:53;;;;;;;24.70;3.25;;;4.20;99.90;;;;;;5012516;28;20092;-75
2022/12/27 10:15:55;;;;;;;20.70;3.42;;;4.40;99.90;;;;;;5025778;28;20041;-82
2022/12/27 10:19:01;;;;;;;23.88;3.40;;;4.50;99.90;;;;;;5012890;28;20422;-80
2022/12/27 10:21:33;;;;;;;19.15;3.55;;;4.40;99.90;;;;;;4999801;28;20411;-81
2022/12/27 10:24:19;;;;;;;16.95;3.17;;;4.40;99.90;;;;;;5013209;28;20045;-79
2022/12/27 10:26:45;;;;;;;11.52;2.90;;;4.60;99.90;;;;;;5012575;28;20381;-79
2022/12/27 10:29:24;;;;;;;20.92;3.58;;;4.60;99.90;;;;;;5012535;28;20092;-81
2022/12/27 10:31:51;;;;;;;18.25;2.95;;;4.70;99.90;;;;;;4977232;28;20147;-79
2022/12/27 10:34:23;;;;;;;21.45;3.58;;;4.80;99.90;;;;;;4997421;28;20499;-75
2022/12/27 10:36:50;;;;;;;16.77;2.83;;;4.90;99.90;;;;;;4989107;28;20125;-80
2022/12/27 10:39:27;;;;;;;18.73;3.30;;;5.10;99.90;;;;;;4972957;28;20035;-80
2022/12/27 10:42:07;;;;;;;19.15;2.90;;;5.00;99.90;;;;;;4971856;28;20564;-75
2022/12/27 10:44:33;;;;;;;14.55;2.90;;;5.10;99.90;;;;;;4934468;28;1202642;-78
2022/12/27 10:46:59;;;;;;;16.35;2.90;;;5.20;99.90;;;;;;4988208;28;20093;-77
2022/12/27 10:49:26;;;;;;;14.63;2.90;;;5.20;99.90;;;;;;4959499;28;20054;-77
2022/12/27 10:52:12;;;;;;;18.15;2.90;;;5.30;99.90;;;;;;4987535;28;20117;-79
2022/12/27 10:54:52;;;;;;;23.10;3.17;;;5.30;99.90;;;;;;5020272;28;20367;-78
2022/12/27 10:57:29;;;;;;;17.33;3.25;;;5.40;99.90;;;;;;4961256;28;20374;-81
2022/12/27 11:00:17;;;;;;;17.55;3.40;;;5.50;99.90;;;;;;4965861;28;20362;-79
2022/12/27 11:02:53;;;;;;;14.23;2.83;;;5.50;99.90;;;;;;4969861;28;20049;-76
2022/12/27 11:05:28;;;;;;;15.02;2.78;;;5.60;99.90;;;;;;4968247;28;20054;-76
2022/12/27 11:07:54;;;;;;;17.65;2.58;;;5.70;99.90;;;;;;4969617;28;20062;-78
2022/12/27 11:10:26;;;;;;;17.88;3.20;;;5.70;99.90;;;;;;4983956;28;20474;-77
2022/12/27 11:13:05;;;;;;;15.70;2.95;;;5.80;99.90;;;;;;4984779;28;20045;-78
2022/12/27 11:15:36;;;;;;;12.68;2.53;;;5.90;99.90;;;;;;4984753;28;20089;-79
2022/12/27 11:18:17;;;;;;;18.65;3.10;;;5.90;99.90;;;;;;4985398;28;20498;-83
2022/12/27 11:20:55;;;;;;;17.73;2.63;;;6.00;99.90;;;;;;4982711;28;20042;-78
2022/12/27 11:23:24;;;;;;;16.95;2.50;;;6.00;99.90;;;;;;4965697;28;20077;-78
2022/12/27 11:25:58;;;;;;;16.40;2.88;;;5.90;99.90;;;;;;4995469;28;20108;-78
2022/12/27 11:28:41;;;;;;;14.77;2.45;;;5.90;99.90;;;;;;4984725;28;20121;-78
2022/12/27 11:31:11;;;;;;;15.90;2.95;;;5.80;99.90;;;;;;4968723;28;20506;-77
2022/12/27 11:33:45;;;;;;;20.05;2.72;;;5.80;99.90;;;;;;4969686;28;20050;-76
2022/12/27 11:36:13;;;;;;;16.85;2.80;;;5.70;99.90;;;;;;4995825;28;20134;-75
2022/12/27 11:38:43;;;;;;;20.30;2.90;;;5.60;99.90;;;;;;4980335;28;20046;-75
2022/12/27 11:41:21;;;;;;;20.15;3.50;;;5.60;99.90;;;;;;4996234;28;20054;-75
2022/12/27 11:43:59;;;;;;;13.45;2.65;;;5.80;99.90;;;;;;4997840;28;20054;-75
2022/12/27 11:46:57;;;;;;;18.20;3.38;;;5.90;99.90;;;;;;4982566;28;20053;-74
2022/12/27 11:49:30;;;;;;;13.45;2.85;;;6.00;99.90;;;;;;4995683;28;20076;-75
2022/12/27 11:52:21;;;;;;;17.40;2.90;;;5.90;99.90;;;;;;4989438;28;20046;-78
2022/12/27 11:54:56;;;;;;;16.90;3.20;;;6.00;99.90;;;;;;4987004;28;20066;-78
2022/12/27 11:57:53;;;;;;;21.20;3.40;;;6.00;99.90;;;;;;4974163;28;20042;-79
2022/12/27 12:00:22;;;;;;;19.38;2.72;;;6.00;99.90;;;;;;4970418;28;20040;-77
2022/12/27 12:03:09;;;;;;;17.25;3.25;;;5.90;99.90;;;;;;4965835;28;20125;-79
2022/12/27 12:05:55;;;;;;;15.48;2.83;;;6.00;99.90;;;;;;4999406;28;20038;-77
2022/12/27 12:08:26;;;;;;;;;;;6.00;99.90;;;;;;4982898;28;20390;-78
2022/12/27 12:11:15;;;;;;;15.77;2.97;;;6.00;99.90;;;;;;4981421;28;19980;-78
2022/12/27 12:13:56;;;;;;;16.88;2.83;;;6.00;99.90;;;;;;4985622;28;20054;-77
2022/12/27 12:16:46;;;;;;;15.18;2.70;;;6.10;99.90;;;;;;4972119;28;20126;-81
2022/12/27 12:19:26;;;;;;;13.77;2.33;;;6.00;99.90;;;;;;4970943;28;20078;-77
2022/12/27 12:21:52;;;;;;;10.95;2.45;;;6.00;99.90;;;;;;4983795;28;20039;-78
2022/12/27 12:24:48;;;;;;;17.83;3.15;;;6.10;99.90;;;;;;4964567;28;20047;-77
2022/12/27 12:27:21;;;;;;;17.67;3.10;;;6.10;99.90;;;;;;4982088;28;20520;-76
2022/12/27 12:29:52;;;;;;;19.08;3.10;;;6.00;99.90;;;;;;4986660;28;20069;-77
2022/12/27 12:32:46;;;;;;;14.52;3.17;;;6.10;99.90;;;;;;4990790;28;20374;-77
2022/12/27 12:35:39;;;;;;;17.05;3.20;;;6.00;99.90;;;;;;4989313;28;20141;-79
2022/12/27 12:38:17;;;;;;;28.13;3.53;;;6.10;99.90;;;;;;4990252;28;20118;-79
2022/12/27 12:41:03;;;;;;;18.73;3.33;;;6.10;99.90;;;;;;4988118;28;20092;-79
2022/12/27 12:43:46;;;;;;;19.20;2.72;;;6.20;99.90;;;;;;4990447;28;20993;-79
2022/12/27 12:46:56;;;;;;;16.95;2.78;;;6.10;99.90;;;;;;4990633;28;20528;-77
2022/12/27 12:49:31;;;;;;;21.20;2.90;;;6.10;99.90;;;;;;4971245;28;20522;-80
2022/12/27 12:51:56;;;;;;;;;;;6.10;99.90;;;;;;4974363;28;20213;-80
2022/12/27 12:54:59;;;;;;;18.33;2.35;;;6.00;99.90;;;;;;4973626;28;19928;-77
2022/12/27 12:57:44;;;;;;;22.42;2.70;;;6.00;99.90;;;;;;4990813;28;20167;-80
2022/12/27 13:00:19;;;;;;;15.13;2.80;;;6.00;99.90;;;;;;5007919;28;20458;-78
2022/12/27 13:03:24;;;;;;;13.55;2.75;;;6.10;99.90;;;;;;4977199;28;20038;-79
2022/12/27 13:06:02;;;;;;;19.23;2.83;;;6.00;99.90;;;;;;4976694;28;20054;-79
2022/12/27 13:08:35;;;;;;;18.02;2.45;;;5.90;99.90;;;;;;4977222;28;20129;-78
2022/12/27 13:11:20;;;;;;;17.88;2.75;;;5.90;99.90;;;;;;4974322;28;20052;-78
2022/12/27 13:14:07;;;;;;;15.65;2.78;;;5.90;99.90;;;;;;4974527;28;20051;-76
2022/12/27 13:16:57;;;;;;;16.20;3.35;;;5.80;99.90;;;;;;4993024;28;20054;-77
2022/12/27 13:19:43;;;;;;;16.13;3.42;;;5.80;99.90;;;;;;4993766;28;20053;-77
2022/12/27 13:22:19;;;;;;;16.70;3.30;;;5.90;99.90;;;;;;4976312;28;20089;-79
2022/12/27 13:25:11;;;;;;;14.98;3.20;;;5.80;99.90;;;;;;4990242;28;20047;-77
2022/12/27 13:28:15;;;;;;;16.40;3.33;;;5.80;99.90;;;;;;4985037;28;20093;-77
2022/12/27 13:31:13;;;;;;;20.02;2.97;;;5.80;99.90;;;;;;4999310;28;20046;-75
2022/12/27 13:33:53;;;;;;;22.90;3.33;;;5.60;99.90;;;;;;5008508;28;20157;-77
2022/12/27 13:36:51;;;;;;;15.25;3.30;;;5.60;99.90;;;;;;4987023;28;20085;-78
2022/12/27 13:39:46;;;;;;;16.20;3.42;;;5.70;99.90;;;;;;5010452;28;20125;-78
2022/12/27 13:42:38;;;;;;;15.57;3.13;;;5.60;99.90;;;;;;5003124;28;20061;-77
2022/12/27 13:45:09;;;;;;;17.98;3.45;;;5.50;99.90;;;;;;5004156;28;20096;-78
2022/12/27 13:47:56;;;;;;;15.38;3.15;;;5.50;99.90;;;;;;4972010;28;20413;-78
2022/12/27 13:50:52;;;;;;;15.25;3.20;;;5.60;99.90;;;;;;4969970;28;20046;-77
2022/12/27 13:53:48;;;;;;;19.45;3.03;;;5.60;99.90;;;;;;4977270;28;20505;-76
2022/12/27 13:56:46;;;;;;;17.38;3.90;;;5.40;99.90;;;;;;4990001;28;20062;-79
2022/12/27 13:59:30;;;;;;;22.50;4.47;;;5.50;99.90;;;;;;4922094;29;20142;-78
2022/12/27 14:02:28;;;;;;;18.05;4.00;;;5.50;99.90;;;;;;4931880;29;20155;-77
2022/12/27 14:05:14;;;;;;;16.23;3.97;;;5.40;99.90;;;;;;4934521;28;20550;-78
2022/12/27 14:07:43;;;;;;;20.27;3.67;;;5.50;99.90;;;;;;4932013;29;20171;-77
2022/12/27 14:10:14;;;;;;;21.38;4.38;;;5.50;99.90;;;;;;4948897;28;20141;-79
2022/12/27 14:12:39;;;;;;;14.40;3.47;;;5.50;99.90;;;;;;4923306;29;20261;-78
2022/12/27 14:15:11;;;;;;;24.85;3.95;;;5.40;99.90;;;;;;4930339;29;20047;-76
2022/12/27 14:17:49;;;;;;;17.63;3.40;;;5.60;99.90;;;;;;4933985;29;20079;-80
2022/12/27 14:20:33;;;;;;;19.50;3.92;;;5.60;99.90;;;;;;4928183;29;20098;-79
2022/12/27 14:23:17;;;;;;;19.13;4.13;;;5.50;99.90;;;;;;4956777;29;20142;-77
2022/12/27 14:25:50;;;;;;;17.95;4.43;;;5.60;99.90;;;;;;4944631;28;20071;-78
2022/12/27 14:28:23;;;;;;;21.20;4.15;;;5.70;99.90;;;;;;4932641;28;20130;-81
2022/12/27 14:31:10;;;;;;;19.13;4.55;;;5.70;99.90;;;;;;4912279;28;20047;-81
2022/12/27 14:34:05;;;;;;;18.73;4.43;;;5.50;99.90;;;;;;4926193;28;20226;-76
2022/12/27 14:36:48;;;;;;;20.17;5.30;;;5.50;99.90;;;;;;4991144;28;20152;-78
2022/12/27 14:39:23;;;;;;;21.85;5.78;;;5.60;99.90;;;;;;4985191;28;20165;-80
2022/12/27 14:42:13;;;;;;;18.75;4.90;;;5.70;99.90;;;;;;4984398;28;20038;-81
2022/12/27 14:45:01;;;;;;;16.08;5.20;;;5.70;99.90;;;;;;4969181;28;20122;-77
2022/12/27 14:47:49;;;;;;;25.10;5.15;;;5.60;99.90;;;;;;5001905;28;20077;-79
2022/12/27 14:50:26;;;;;;;16.95;5.15;;;5.50;99.90;;;;;;4985736;28;20136;-78
2022/12/27 14:53:10;;;;;;;17.13;5.18;;;5.50;99.90;;;;;;4969268;28;20053;-79
2022/12/27 14:56:02;;;;;;;16.02;6.13;;;5.50;99.90;;;;;;4982258;28;20759;-78
2022/12/27 14:58:58;;;;;;;19.25;5.20;;;5.50;99.90;;;;;;4965377;28;20034;-80
2022/12/27 15:01:29;;;;;;;;;;;5.40;99.90;;;;;;4999292;28;20053;-77
2022/12/27 15:04:04;;;;;;;15.25;4.97;;;5.30;99.90;;;;;;4984052;28;19921;-79